createdAt,value
2023-03-05T00:02:58.798Z,1.20
2023-03-05T00:06:01.099Z,0.10
2023-03-05T00:09:03.534Z,0.60
2023-03-05T00:12:05.860Z,1.20
2023-03-05T00:15:08.416Z,0.50
2023-03-05T00:18:10.605Z,1.35
2023-03-05T00:21:20.553Z,0.20
2023-03-05T00:24:22.724Z,0.50
2023-03-05T00:27:24.897Z,0.40
2023-03-05T00:30:27.129Z,0.68
2023-03-05T00:33:29.306Z,0.35
2023-03-05T00:36:31.630Z,0.70
2023-03-05T00:39:33.807Z,0.37
2023-03-05T00:42:38.769Z,0.55
2023-03-05T00:45:41.043Z,0.90
2023-03-05T00:48:43.339Z,0.32
2023-03-05T00:51:45.553Z,0.60
2023-03-05T00:54:47.814Z,0.40
2023-03-05T00:57:50.017Z,0.30
2023-03-05T01:00:52.223Z,0.47
2023-03-05T01:03:56.498Z,0.82
2023-03-05T01:06:59.254Z,0.60
2023-03-05T01:10:01.392Z,0.80
2023-03-05T01:13:03.761Z,0.68
2023-03-05T01:16:06.453Z,1.25
2023-03-05T01:19:09.107Z,0.95
2023-03-05T01:22:11.237Z,0.67
2023-03-05T01:25:14.308Z,0.97
2023-03-05T01:28:16.490Z,0.73
2023-03-05T01:31:18.759Z,0.82
2023-03-05T01:34:21.465Z,0.77
2023-03-05T01:37:23.639Z,1.13
2023-03-05T01:40:26.941Z,1.03
2023-03-05T01:43:30.432Z,1.38
2023-03-05T01:46:38.850Z,0.57
2023-03-05T01:49:41.460Z,0.47
2023-03-05T01:52:45.594Z,0.80
2023-03-05T01:55:47.819Z,0.90
2023-03-05T01:58:50.484Z,1.02
2023-03-05T02:01:54.637Z,0.80
2023-03-05T02:05:05.098Z,1.02
2023-03-05T02:08:08.360Z,0.90
2023-03-05T02:11:10.526Z,0.30
2023-03-05T02:14:13.024Z,0.47
2023-03-05T02:17:15.608Z,0.88
2023-03-05T02:20:22.842Z,1.05
2023-03-05T02:23:26.469Z,0.70
2023-03-05T02:26:28.621Z,0.80
2023-03-05T02:29:31.860Z,0.47
2023-03-05T02:32:34.079Z,0.77
2023-03-05T02:35:37.012Z,0.65
2023-03-05T02:38:41.662Z,0.28
2023-03-05T02:41:44.434Z,0.70
2023-03-05T02:44:47.039Z,1.02
2023-03-05T02:47:49.463Z,0.73
2023-03-05T02:50:52.057Z,0.55
2023-03-05T02:53:54.851Z,0.57
2023-03-05T02:56:59.212Z,0.30
2023-03-05T03:00:02.399Z,0.75
2023-03-05T03:03:04.690Z,0.55
2023-03-05T03:06:07.081Z,0.77
2023-03-05T03:09:09.255Z,0.70
2023-03-05T03:12:11.698Z,0.87
2023-03-05T03:15:15.854Z,0.90
2023-03-05T03:18:18.099Z,0.70
2023-03-05T03:21:22.356Z,0.32
2023-03-05T03:24:24.500Z,0.83
2023-03-05T03:27:26.828Z,1.07
2023-03-05T03:30:28.956Z,0.47
2023-03-05T03:33:31.601Z,1.00
2023-03-05T03:36:34.423Z,0.80
2023-03-05T03:39:36.549Z,0.60
2023-03-05T03:42:38.666Z,0.57
2023-03-05T03:45:41.746Z,1.15
2023-03-05T03:48:43.882Z,0.70
2023-03-05T03:51:46.650Z,0.73
2023-03-05T03:54:50.088Z,0.67
2023-03-05T03:57:52.343Z,1.40
2023-03-05T04:00:54.504Z,1.35
2023-03-05T04:03:56.746Z,0.68
2023-03-05T04:06:59.020Z,0.63
2023-03-05T04:10:01.185Z,1.27
2023-03-05T04:13:03.343Z,0.50
2023-03-05T04:16:05.733Z,0.68
2023-03-05T04:19:07.987Z,0.50
2023-03-05T04:22:14.804Z,0.70
2023-03-05T04:25:17.086Z,0.97
2023-03-05T04:28:19.272Z,0.73
2023-03-05T04:31:21.652Z,1.48
2023-03-05T04:34:24.036Z,0.60
2023-03-05T04:37:26.406Z,1.00
2023-03-05T04:40:28.675Z,1.27
2023-03-05T04:43:30.959Z,0.57
2023-03-05T04:46:33.142Z,0.90
2023-03-05T04:49:35.348Z,0.82
2023-03-05T04:52:41.614Z,0.75
2023-03-05T04:55:43.730Z,0.37
2023-03-05T04:58:45.858Z,0.67
2023-03-05T05:01:48.142Z,0.55
2023-03-05T05:04:52.709Z,0.93
2023-03-05T05:07:56.293Z,0.95
2023-03-05T05:11:02.869Z,1.00
2023-03-05T05:14:05.042Z,0.73
2023-03-05T05:17:07.324Z,1.00
2023-03-05T05:20:11.582Z,1.08
2023-03-05T05:23:14.171Z,1.08
2023-03-05T05:26:16.350Z,1.83
2023-03-05T05:29:18.500Z,0.67
2023-03-05T05:32:22.453Z,1.40
2023-03-05T05:35:24.791Z,0.88
2023-03-05T05:38:26.961Z,1.02
2023-03-05T05:41:29.194Z,1.40
2023-03-05T05:44:31.322Z,1.30
2023-03-05T05:47:33.488Z,1.27
2023-03-05T05:50:35.663Z,1.25
2023-03-05T05:53:37.855Z,1.10
2023-03-05T05:56:40.324Z,1.58
2023-03-05T05:59:42.514Z,1.17
2023-03-05T06:02:44.871Z,1.63
2023-03-05T06:05:47.775Z,0.80
2023-03-05T06:08:50.216Z,0.90
2023-03-05T06:11:52.483Z,1.05
2023-03-05T06:14:54.701Z,1.03
2023-03-05T06:17:58.478Z,1.30
2023-03-05T06:21:02.567Z,1.23
2023-03-05T06:24:04.881Z,1.23
2023-03-05T06:27:07.015Z,0.88
2023-03-05T06:30:10.917Z,1.30
2023-03-05T06:33:13.062Z,0.70
2023-03-05T06:36:16.339Z,1.50
2023-03-05T06:39:18.549Z,1.42
2023-03-05T06:42:21.158Z,1.23
2023-03-05T06:45:23.286Z,1.13
2023-03-05T06:48:25.711Z,2.28
2023-03-05T06:51:32.767Z,1.20
2023-03-05T06:54:34.977Z,0.63
2023-03-05T06:57:37.329Z,1.13
2023-03-05T07:00:39.433Z,1.33
2023-03-05T07:03:42.268Z,1.48
2023-03-05T07:06:44.782Z,0.80
2023-03-05T07:09:50.367Z,1.33
2023-03-05T07:12:52.572Z,1.52
2023-03-05T07:15:55.163Z,1.83
2023-03-05T07:18:58.047Z,0.93
2023-03-05T07:22:00.178Z,1.98
2023-03-05T07:25:02.372Z,1.55
2023-03-05T07:28:05.714Z,1.70
2023-03-05T07:31:09.202Z,1.53
2023-03-05T07:34:11.405Z,1.52
2023-03-05T07:37:14.113Z,1.60
2023-03-05T07:40:16.547Z,1.42
2023-03-05T07:43:18.914Z,2.20
2023-03-05T07:46:22.542Z,2.00
2023-03-05T07:49:24.868Z,2.17
2023-03-05T07:52:27.115Z,2.83
2023-03-05T07:55:29.306Z,1.65
2023-03-05T07:58:31.478Z,1.27
2023-03-05T08:01:33.903Z,1.47
2023-03-05T08:04:36.088Z,1.02
2023-03-05T08:07:38.286Z,1.90
2023-03-05T08:10:40.494Z,1.10
2023-03-05T08:13:43.742Z,1.70
2023-03-05T08:16:48.323Z,1.07
2023-03-05T08:19:50.704Z,2.00
2023-03-05T08:22:53.092Z,1.65
2023-03-05T08:25:55.381Z,2.05
2023-03-05T08:28:58.148Z,1.58
2023-03-05T08:32:00.420Z,1.40
2023-03-05T08:35:04.684Z,1.67
2023-03-05T08:38:06.914Z,1.52
2023-03-05T08:41:09.141Z,1.90
2023-03-05T08:44:11.689Z,2.17
2023-03-05T08:47:13.888Z,2.20
2023-03-05T08:50:17.899Z,1.75
2023-03-05T08:53:20.091Z,2.17
2023-03-05T08:56:22.360Z,1.05
2023-03-05T08:59:24.588Z,1.75
2023-03-05T09:02:27.045Z,2.17
2023-03-05T09:05:29.256Z,0.90
2023-03-05T09:08:31.419Z,1.83
2023-03-05T09:11:36.181Z,1.02
2023-03-05T09:14:38.380Z,1.65
2023-03-05T09:17:42.022Z,1.37
2023-03-05T09:20:44.180Z,2.05
2023-03-05T09:23:47.345Z,2.00
2023-03-05T09:26:49.644Z,1.67
2023-03-05T09:29:53.486Z,1.50
2023-03-05T09:32:55.651Z,1.80
2023-03-05T09:35:57.959Z,1.20
2023-03-05T09:39:00.239Z,1.13
2023-03-05T09:42:23.136Z,1.45
2023-03-05T09:45:30.527Z,1.77
2023-03-05T09:48:44.061Z,1.30
2023-03-05T09:51:48.477Z,1.52
2023-03-05T09:54:55.400Z,1.75
2023-03-05T09:58:03.199Z,2.28
2023-03-05T10:01:10.550Z,1.85
2023-03-05T10:04:15.080Z,1.33
2023-03-05T10:07:20.988Z,2.15
2023-03-05T10:10:28.150Z,2.10
2023-03-05T10:13:32.389Z,2.35
2023-03-05T10:16:48.270Z,2.28
2023-03-05T10:19:53.484Z,2.43
2023-03-05T10:22:58.683Z,2.10
2023-03-05T10:26:19.778Z,1.80
2023-03-05T10:29:22.034Z,0.73
2023-03-05T10:32:24.384Z,1.17
2023-03-05T10:35:45.247Z,1.60
2023-03-05T10:38:57.046Z,2.55
2023-03-05T10:42:06.246Z,2.00
2023-03-05T10:45:20.254Z,1.60
2023-03-05T10:48:25.506Z,1.55
2023-03-05T10:51:35.944Z,1.40
2023-03-05T10:54:41.837Z,1.88
2023-03-05T10:57:44.383Z,1.80
2023-03-05T11:01:00.043Z,1.27
2023-03-05T11:04:06.576Z,0.93
2023-03-05T11:07:29.387Z,1.97
2023-03-05T11:10:31.597Z,1.70
2023-03-05T11:13:33.966Z,1.30
2023-03-05T11:16:46.985Z,1.30
2023-03-05T11:19:49.164Z,1.85
2023-03-05T11:23:04.976Z,1.43
2023-03-05T11:26:13.435Z,1.60
2023-03-05T11:29:20.215Z,1.58
2023-03-05T11:32:24.092Z,1.52
2023-03-05T11:35:30.109Z,2.08
2023-03-05T11:38:34.102Z,1.17
2023-03-05T11:41:42.286Z,1.90
2023-03-05T11:44:44.549Z,1.80
2023-03-05T11:47:51.087Z,1.60
2023-03-05T11:50:55.997Z,1.25
2023-03-05T11:54:01.215Z,1.33
2023-03-05T11:57:03.859Z,1.58
2023-03-05T12:00:13.130Z,1.63
2023-03-05T12:03:17.253Z,1.52
2023-03-05T12:06:22.629Z,0.77
2023-03-05T12:09:45.773Z,1.80
2023-03-05T12:13:06.435Z,1.20
2023-03-05T12:16:17.480Z,1.48
2023-03-05T12:19:19.686Z,1.10
2023-03-05T12:22:26.787Z,2.30
2023-03-05T12:25:32.830Z,2.23
2023-03-05T12:28:35.140Z,1.50
2023-03-05T12:31:39.446Z,2.00
2023-03-05T12:34:42.280Z,1.45
2023-03-05T12:37:44.469Z,1.85
2023-03-05T12:40:47.293Z,2.17
2023-03-05T12:44:18.058Z,1.88
2023-03-05T12:47:23.607Z,1.58
2023-03-05T12:50:29.099Z,2.08
2023-03-05T12:53:31.345Z,1.80
2023-03-05T12:56:34.545Z,1.70
2023-03-05T12:59:58.473Z,1.67
2023-03-05T13:03:02.207Z,1.52
2023-03-05T13:06:06.742Z,1.20
2023-03-05T13:09:23.130Z,1.08
2023-03-05T13:12:27.070Z,1.47
2023-03-05T13:15:29.803Z,1.48
2023-03-05T13:18:32.931Z,1.38
2023-03-05T13:21:35.434Z,1.40
2023-03-05T13:24:37.862Z,1.95
2023-03-05T13:27:40.130Z,1.50
2023-03-05T13:30:50.524Z,1.45
2023-03-05T13:33:54.457Z,1.58
2023-03-05T13:37:01.331Z,0.85
2023-03-05T13:40:23.914Z,1.60
2023-03-05T13:43:26.067Z,0.90
2023-03-05T13:46:42.161Z,0.95
2023-03-05T13:49:44.705Z,1.38
2023-03-05T13:52:47.038Z,1.13
2023-03-05T13:55:50.298Z,0.90
2023-03-05T13:58:54.127Z,1.27
2023-03-05T14:02:17.019Z,0.75
2023-03-05T14:05:19.882Z,1.08
2023-03-05T14:08:25.467Z,1.10
2023-03-05T14:11:27.908Z,0.82
2023-03-05T14:14:31.224Z,0.77
2023-03-05T14:17:38.632Z,0.68
2023-03-05T14:21:01.435Z,0.95
2023-03-05T14:24:11.612Z,0.73
2023-03-05T14:27:21.360Z,0.25
2023-03-05T14:30:24.649Z,0.60
2023-03-05T14:33:29.698Z,1.33
2023-03-05T14:36:32.701Z,0.30
2023-03-05T14:39:35.082Z,0.98
2023-03-05T14:42:43.366Z,0.82
2023-03-05T14:45:46.747Z,1.30
2023-03-05T14:48:49.116Z,0.80
2023-03-05T14:51:51.461Z,0.60
2023-03-05T14:54:54.717Z,0.82
2023-03-05T14:58:04.463Z,1.77
2023-03-05T15:01:07.563Z,0.60
2023-03-05T15:04:10.973Z,0.57
2023-03-05T15:07:22.544Z,0.82
2023-03-05T15:10:25.566Z,0.30
2023-03-05T15:13:27.896Z,0.65
2023-03-05T15:16:32.150Z,0.93
2023-03-05T15:19:34.612Z,1.00
2023-03-05T15:22:37.391Z,1.30
2023-03-05T15:25:40.049Z,0.95
2023-03-05T15:28:43.016Z,1.10
2023-03-05T15:31:45.441Z,1.07
2023-03-05T15:34:47.934Z,1.20
2023-03-05T15:37:50.640Z,0.95
2023-03-05T15:40:53.030Z,0.47
2023-03-05T15:43:55.417Z,1.00
2023-03-05T15:46:57.880Z,1.07
2023-03-05T15:50:00.239Z,1.02
2023-03-05T15:53:02.670Z,1.38
2023-03-05T15:56:05.220Z,1.08
2023-03-05T15:59:09.429Z,0.55
2023-03-05T16:02:15.038Z,0.40
2023-03-05T16:05:17.342Z,0.88
2023-03-05T16:08:19.716Z,1.08
2023-03-05T16:11:22.139Z,1.15
2023-03-05T16:14:25.167Z,1.00
2023-03-05T16:17:27.586Z,1.70
2023-03-05T16:20:30.025Z,0.45
2023-03-05T16:23:32.465Z,0.80
2023-03-05T16:26:36.145Z,1.02
2023-03-05T16:29:38.575Z,0.80
2023-03-05T16:32:41.700Z,0.50
2023-03-05T16:35:44.623Z,0.20
2023-03-05T16:38:48.295Z,0.63
2023-03-05T16:41:50.461Z,0.70
2023-03-05T16:44:52.855Z,0.75
2023-03-05T16:47:55.180Z,0.27
2023-03-05T16:50:57.994Z,0.60
2023-03-05T16:54:00.409Z,0.35
2023-03-05T16:57:02.642Z,0.65
2023-03-05T17:00:05.816Z,0.45
2023-03-05T17:03:08.604Z,1.00
2023-03-05T17:06:21.806Z,0.82
2023-03-05T17:09:24.652Z,0.90
2023-03-05T17:12:27.135Z,0.45
2023-03-05T17:15:29.665Z,0.32
2023-03-05T17:18:32.086Z,0.40
2023-03-05T17:21:35.151Z,0.55
2023-03-05T17:24:38.622Z,0.30
2023-03-05T17:27:41.032Z,0.45
2023-03-05T17:30:43.652Z,0.80
2023-03-05T17:33:46.008Z,0.30
2023-03-05T17:36:50.528Z,0.35
2023-03-05T17:39:53.509Z,0.50
2023-03-05T17:42:55.866Z,0.45
2023-03-05T17:46:00.706Z,0.30
2023-03-05T17:49:04.468Z,0.27
2023-03-05T17:52:06.854Z,0.30
2023-03-05T17:55:10.786Z,0.77
2023-03-05T17:58:13.287Z,0.28
2023-03-05T18:01:31.995Z,0.20
2023-03-05T18:04:35.040Z,0.17
2023-03-05T18:07:38.470Z,0.47
2023-03-05T18:10:40.935Z,0.20
2023-03-05T18:13:43.471Z,0.68
2023-03-05T18:16:45.971Z,0.20
2023-03-05T18:19:48.730Z,0.10
2023-03-05T18:22:51.205Z,0.50
2023-03-05T18:25:53.682Z,0.57
2023-03-05T18:28:56.104Z,0.30
2023-03-05T18:31:58.606Z,0.33
2023-03-05T18:35:00.822Z,0.83
2023-03-05T18:38:04.792Z,0.20
2023-03-05T18:41:08.111Z,0.25
2023-03-05T18:44:10.872Z,0.85
2023-03-05T18:47:13.057Z,0.40
2023-03-05T18:50:18.629Z,0.30
2023-03-05T18:53:22.510Z,0.20
2023-03-05T18:56:25.443Z,0.25
2023-03-05T18:59:29.633Z,0.50
2023-03-05T19:02:34.448Z,0.50
2023-03-05T19:05:36.872Z,0.40
2023-03-05T19:08:39.476Z,0.50
2023-03-05T19:11:41.707Z,0.93
2023-03-05T19:14:44.076Z,0.35
2023-03-05T19:17:46.541Z,0.60
2023-03-05T19:20:55.960Z,0.43
2023-03-05T19:23:58.262Z,0.35
2023-03-05T19:27:01.478Z,0.30
2023-03-05T19:30:04.648Z,0.50
2023-03-05T19:33:07.074Z,0.47
2023-03-05T19:36:10.506Z,0.70
2023-03-05T19:39:13.040Z,0.88
2023-03-05T19:42:15.730Z,1.02
2023-03-05T19:45:18.186Z,0.10
2023-03-05T19:48:20.649Z,0.83
2023-03-05T19:51:24.096Z,0.50
2023-03-05T19:54:26.519Z,0.40
2023-03-05T19:57:29.210Z,0.30
2023-03-05T20:00:31.387Z,0.22
2023-03-05T20:03:33.839Z,0.08
2023-03-05T20:06:36.220Z,0.73
2023-03-05T20:09:38.454Z,0.45
2023-03-05T20:12:40.849Z,0.73
2023-03-05T20:15:43.303Z,0.50
2023-03-05T20:18:46.480Z,0.33
2023-03-05T20:21:48.832Z,0.13
2023-03-05T20:24:51.210Z,0.30
2023-03-05T20:27:53.639Z,0.30
2023-03-05T20:30:57.017Z,0.57
2023-03-05T20:33:59.867Z,0.20
2023-03-05T20:37:02.015Z,0.20
2023-03-05T20:40:04.532Z,0.52
2023-03-05T20:43:06.840Z,0.30
2023-03-05T20:46:17.000Z,0.10
2023-03-05T20:49:19.779Z,0.22
2023-03-05T20:52:22.107Z,0.53
2023-03-05T20:55:27.693Z,0.40
2023-03-05T20:58:29.849Z,0.82
2023-03-05T21:01:33.683Z,0.40
2023-03-05T21:04:36.253Z,0.45
2023-03-05T21:07:38.489Z,0.70
2023-03-05T21:10:40.842Z,1.00
2023-03-05T21:13:44.462Z,0.52
2023-03-05T21:16:46.979Z,0.75
2023-03-05T21:19:49.396Z,0.80
2023-03-05T21:22:51.754Z,0.90
2023-03-05T21:25:54.048Z,0.90
2023-03-05T21:28:56.675Z,0.80
2023-03-05T21:31:59.236Z,1.23
2023-03-05T21:35:01.579Z,0.93
2023-03-05T21:38:05.182Z,0.60
2023-03-05T21:41:07.526Z,1.10
2023-03-05T21:44:11.442Z,0.75
2023-03-05T21:47:14.048Z,1.48
2023-03-05T21:50:16.659Z,1.00
2023-03-05T21:53:19.764Z,1.53
2023-03-05T21:56:24.241Z,1.30
2023-03-05T21:59:26.415Z,2.20
2023-03-05T22:02:28.614Z,1.27
2023-03-05T22:05:30.878Z,0.83
2023-03-05T22:08:33.032Z,1.23
2023-03-05T22:11:35.210Z,1.08
2023-03-05T22:14:37.418Z,1.15
2023-03-05T22:17:39.768Z,1.33
2023-03-05T22:20:42.503Z,1.70
2023-03-05T22:23:44.715Z,0.87
2023-03-05T22:26:46.891Z,1.10
2023-03-05T22:29:49.036Z,1.65
2023-03-05T22:32:51.236Z,1.00
2023-03-05T22:35:53.654Z,1.60
2023-03-05T22:38:55.883Z,1.47
2023-03-05T22:41:58.100Z,1.58
2023-03-05T22:45:00.313Z,1.25
2023-03-05T22:48:02.493Z,1.60
2023-03-05T22:51:04.735Z,1.13
2023-03-05T22:54:06.856Z,1.30
2023-03-05T22:57:09.036Z,0.70
2023-03-05T23:00:15.998Z,1.02
2023-03-05T23:03:18.140Z,0.82
2023-03-05T23:06:21.096Z,1.10
2023-03-05T23:09:23.331Z,2.03
2023-03-05T23:12:26.706Z,1.10
2023-03-05T23:15:30.294Z,1.13
2023-03-05T23:18:32.957Z,0.73
2023-03-05T23:21:35.143Z,2.10
2023-03-05T23:24:37.808Z,1.47
2023-03-05T23:27:40.482Z,1.25
2023-03-05T23:30:43.197Z,1.45
2023-03-05T23:33:45.472Z,0.80
2023-03-05T23:36:47.605Z,0.98
2023-03-05T23:39:49.757Z,1.20
2023-03-05T23:42:52.041Z,1.13
2023-03-05T23:45:57.410Z,1.15
2023-03-05T23:48:59.614Z,1.42
2023-03-05T23:52:01.786Z,0.88
2023-03-05T23:55:04.217Z,1.17
2023-03-05T23:58:06.846Z,1.23
